Time;durP1;ratioP1;P1;durP2;ratioP2;P2;SDS_P1;SDS_P2;PMS_P1;PMS_P2;Temp;Humidity;BMP_temperature;BMP_pressure;BME280_temperature;BME280_humidity;BME280_pressure;Samples;Min_cycle;Max_cycle;Signal;HPM_P1;HPM_P2
2021/08/24 00:00:27;;;;;;;3.15;1.73;;;;;;;17.87;63.14;93148.28;2067965;69;20151;-72
2021/08/24 00:02:54;;;;;;;7.25;1.90;;;;;;;17.80;64.83;93151.53;2068136;69;20607;-72
2021/08/24 00:05:29;;;;;;;4.25;1.70;;;;;;;17.91;63.57;93148.44;2067961;69;20280;-72
2021/08/24 00:07:58;;;;;;;5.63;1.70;;;;;;;17.74;64.21;93149.91;2067992;69;20240;-72
2021/08/24 00:10:51;;;;;;;6.03;1.98;;;;;;;17.64;65.48;93152.31;2068142;69;20299;-72
2021/08/24 00:13:18;;;;;;;;;;;;;;;17.71;65.78;93148.31;2067637;69;20225;-72
2021/08/24 00:15:44;;;;;;;2.40;1.85;;;;;;;17.76;64.35;93146.41;2067978;69;20068;-72
2021/08/24 00:18:11;;;;;;;2.55;1.60;;;;;;;17.71;64.81;93141.88;2068147;69;20141;-72
2021/08/24 00:20:38;;;;;;;5.78;1.70;;;;;;;17.76;64.46;93149.25;2068072;69;20148;-72
2021/08/24 00:23:08;;;;;;;11.45;1.70;;;;;;;17.74;64.10;93143.47;2068229;69;20172;-72
2021/08/24 00:25:36;;;;;;;3.53;1.58;;;;;;;17.68;65.54;93151.72;2067894;69;20160;-72
2021/08/24 00:28:01;;;;;;;2.22;1.70;;;;;;;17.72;64.69;93146.19;2068017;69;20190;-71
2021/08/24 00:30:27;;;;;;;4.53;1.70;;;;;;;17.74;65.17;93152.00;2068192;69;20188;-71
2021/08/24 00:32:53;;;;;;;3.63;1.90;;;;;;;17.63;65.84;93150.09;2068491;69;20147;-71
2021/08/24 00:35:19;;;;;;;2.72;1.80;;;;;;;17.60;66.17;93145.72;2068478;69;20303;-72
2021/08/24 00:37:44;;;;;;;4.82;1.85;;;;;;;17.81;63.93;93144.44;2068529;69;20141;-72
2021/08/24 00:40:11;;;;;;;5.43;1.83;;;;;;;17.63;66.46;93139.44;2068520;69;20598;-72
2021/08/24 00:42:38;;;;;;;3.38;1.80;;;;;;;17.62;65.43;93137.97;2068626;69;20132;-72
2021/08/24 00:45:07;;;;;;;6.35;2.05;;;;;;;17.48;66.47;93143.81;2068621;69;20680;-71
2021/08/24 00:47:34;;;;;;;4.25;1.90;;;;;;;17.44;65.88;93140.06;2068655;69;20564;-72
2021/08/24 00:50:10;;;;;;;4.03;1.63;;;;;;;17.41;66.25;93136.41;2068340;69;20207;-71
2021/08/24 00:52:36;;;;;;;4.65;1.98;;;;;;;17.47;65.13;93138.75;2068509;69;20164;-72
2021/08/24 00:55:01;;;;;;;5.18;1.80;;;;;;;17.22;67.59;93139.81;2068555;69;20140;-71
2021/08/24 00:57:27;;;;;;;2.90;1.95;;;;;;;17.24;66.64;93131.38;2068158;69;20192;-71
2021/08/24 00:59:53;;;;;;;3.33;1.70;;;;;;;17.21;66.89;93135.53;2067903;69;20594;-72
2021/08/24 01:02:21;;;;;;;4.50;1.80;;;;;;;17.48;64.39;93131.69;2067802;69;20159;-71
2021/08/24 01:04:49;;;;;;;2.53;1.83;;;;;;;17.41;66.13;93124.25;2068371;69;20140;-72
2021/08/24 01:07:25;;;;;;;5.25;1.77;;;;;;;17.32;65.45;93125.28;2068612;69;20611;-71
2021/08/24 01:10:14;;;;;;;3.63;2.00;;;;;;;17.19;66.71;93124.78;2068571;69;20152;-71
2021/08/24 01:12:58;;;;;;;2.90;1.80;;;;;;;17.30;65.49;93128.06;2068587;69;20144;-72
2021/08/24 01:15:52;;;;;;;2.80;1.77;;;;;;;17.29;65.56;93121.66;2068517;69;20213;-71
2021/08/24 01:18:28;;;;;;;3.78;1.70;;;;;;;17.01;67.48;93121.88;2068489;69;20519;-72
2021/08/24 01:21:13;;;;;;;5.75;1.92;;;;;;;17.02;65.70;93114.81;2068498;69;20164;-72
2021/08/24 01:24:20;;;;;;;2.90;1.90;;;;;;;16.91;68.03;93115.75;2068509;69;20214;-72
2021/08/24 01:27:07;;;;;;;5.25;1.77;;;;;;;16.92;67.16;93113.66;2068469;69;20364;-72
2021/08/24 01:30:10;;;;;;;3.97;2.08;;;;;;;16.88;67.43;93108.50;2068390;69;20152;-72
2021/08/24 01:32:58;;;;;;;4.90;1.88;;;;;;;16.93;65.18;93109.41;2068502;69;20163;-72
2021/08/24 01:35:55;;;;;;;4.50;1.70;;;;;;;16.91;65.46;93106.50;2068298;69;20156;-72
2021/08/24 01:38:24;;;;;;;3.63;1.65;;;;;;;16.75;67.07;93098.72;2066799;69;20144;-72
2021/08/24 01:41:01;;;;;;;3.97;1.48;;;;;;;16.96;65.47;93100.34;2068306;69;20152;-72
2021/08/24 01:43:54;;;;;;;3.67;1.70;;;;;;;16.54;68.35;93099.16;2068513;69;20628;-72
2021/08/24 01:46:44;;;;;;;4.63;2.10;;;;;;;16.45;67.57;93092.38;2068512;69;20232;-72
2021/08/24 01:49:13;;;;;;;6.47;1.80;;;;;;;16.40;68.67;93092.81;2064834;69;20163;-72
2021/08/24 01:51:44;;;;;;;3.05;1.75;;;;;;;16.44;67.26;93093.72;2068465;69;20639;-72
2021/08/24 01:54:23;;;;;;;4.35;1.70;;;;;;;16.43;67.84;93091.53;2068420;69;20203;-72
2021/08/24 01:56:51;;;;;;;4.20;1.70;;;;;;;16.31;68.33;93093.81;2068335;69;20151;-72
2021/08/24 01:59:31;;;;;;;4.25;1.80;;;;;;;16.49;67.07;93100.34;2068470;69;20156;-72
2021/08/24 02:02:11;;;;;;;2.50;1.88;;;;;;;16.35;67.90;93091.16;2068451;69;20160;-72
2021/08/24 02:04:59;;;;;;;4.28;1.98;;;;;;;16.35;68.74;93091.16;2065026;69;20175;-72
2021/08/24 02:07:28;;;;;;;5.68;1.90;;;;;;;16.24;69.11;93099.22;2068357;69;20145;-73
2021/08/24 02:09:59;;;;;;;3.45;2.00;;;;;;;16.37;68.32;93103.38;2068451;69;20227;-72
2021/08/24 02:12:30;;;;;;;2.95;1.58;;;;;;;16.33;69.02;93106.03;2068463;69;20532;-72
2021/08/24 02:14:56;;;;;;;2.60;1.50;;;;;;;16.48;68.07;93104.56;2068485;69;20148;-72
2021/08/24 02:17:23;;;;;;;5.30;1.73;;;;;;;16.24;69.47;93101.34;2068191;69;20212;-72
2021/08/24 02:19:55;;;;;;;2.35;1.90;;;;;;;16.39;68.10;93111.25;2068277;69;20236;-72
2021/08/24 02:22:34;;;;;;;2.50;1.85;;;;;;;16.49;67.61;93109.63;2068512;69;20170;-72
2021/08/24 02:25:20;;;;;;;2.90;1.83;;;;;;;16.25;68.80;93105.66;2068406;69;20596;-72
2021/08/24 02:28:13;;;;;;;4.82;1.83;;;;;;;16.49;68.30;93095.41;2068313;69;20182;-72
2021/08/24 02:30:47;;;;;;;3.95;1.75;;;;;;;16.45;68.70;93095.22;2068397;69;20148;-72
2021/08/24 02:33:14;;;;;;;4.60;2.00;;;;;;;16.44;68.97;93099.41;2068315;69;20283;-71
2021/08/24 02:35:53;;;;;;;2.88;1.67;;;;;;;16.56;67.32;93095.66;2068298;69;20136;-72
2021/08/24 02:38:39;;;;;;;2.67;1.63;;;;;;;16.54;68.48;93090.63;2068301;69;20160;-71
2021/08/24 02:41:19;;;;;;;3.30;1.77;;;;;;;16.49;68.48;93091.81;2065214;69;20286;-71
2021/08/24 02:44:04;;;;;;;4.57;1.90;;;;;;;16.55;68.44;93097.78;2068362;69;20152;-72
2021/08/24 02:46:32;;;;;;;2.78;1.60;;;;;;;16.56;68.70;93107.03;2068125;69;20152;-72
2021/08/24 02:49:03;;;;;;;3.17;1.80;;;;;;;16.23;70.26;93086.41;2067623;69;20212;-72
2021/08/24 02:51:30;;;;;;;4.60;1.70;;;;;;;16.41;68.51;93091.47;2068201;69;20164;-72
2021/08/24 02:53:55;;;;;;;3.25;2.00;;;;;;;16.52;68.22;93091.25;2068200;69;20141;-72
2021/08/24 02:56:21;;;;;;;2.42;1.60;;;;;;;16.53;67.77;93095.56;2068353;69;20158;-72
2021/08/24 02:58:47;;;;;;;3.17;1.70;;;;;;;16.59;67.50;93089.44;2068161;69;20160;-72
2021/08/24 03:01:12;;;;;;;2.72;1.80;;;;;;;16.49;67.90;93088.97;2068307;69;20167;-71
2021/08/24 03:03:38;;;;;;;3.55;1.70;;;;;;;16.38;68.32;93090.63;2068184;69;20145;-71
2021/08/24 03:06:04;;;;;;;3.33;1.92;;;;;;;16.21;68.35;93088.41;2068279;69;20248;-72
2021/08/24 03:08:30;;;;;;;2.20;1.70;;;;;;;16.43;66.84;93086.59;2068398;69;20160;-72
2021/08/24 03:10:56;;;;;;;4.43;1.58;;;;;;;16.16;68.12;93089.59;2064876;69;20223;-72
2021/08/24 03:13:28;;;;;;;3.03;1.90;;;;;;;15.69;72.01;93096.66;2068173;69;20247;-72
2021/08/24 03:16:19;;;;;;;5.10;2.08;;;;;;;15.67;72.56;93095.84;2068124;69;20152;-72
2021/08/24 03:18:52;;;;;;;3.70;1.83;;;;;;;16.20;68.88;93095.47;2068243;69;20218;-72
2021/08/24 03:21:22;;;;;;;4.18;1.90;;;;;;;16.19;69.30;93097.59;2068281;69;20710;-73
2021/08/24 03:23:49;;;;;;;2.83;1.90;;;;;;;16.30;68.79;93100.88;2068396;69;20508;-72
2021/08/24 03:26:22;;;;;;;5.20;2.00;;;;;;;16.26;68.59;93093.66;2064957;69;20137;-72
2021/08/24 03:28:48;;;;;;;;;;;;;;;16.31;69.14;93091.75;2068441;69;20164;-72
2021/08/24 03:31:16;;;;;;;5.80;2.00;;;;;;;16.25;69.53;93095.00;2068243;69;20416;-72
2021/08/24 03:33:42;;;;;;;2.67;1.98;;;;;;;16.36;68.87;93098.34;2068072;69;20171;-72
2021/08/24 03:36:08;;;;;;;3.80;1.92;;;;;;;16.37;68.37;93094.84;2068242;69;20266;-73
2021/08/24 03:38:34;;;;;;;3.85;1.40;;;;;;;16.35;68.54;93100.41;2068420;69;20219;-73
2021/08/24 03:41:04;;;;;;;4.88;1.60;;;;;;;16.39;68.34;93102.72;2068297;69;20633;-73
2021/08/24 03:43:29;;;;;;;3.13;1.80;;;;;;;16.35;69.12;93105.38;2064964;69;20339;-73
2021/08/24 03:45:55;;;;;;;2.38;1.67;;;;;;;16.32;68.61;93098.88;2068306;69;20691;-73
2021/08/24 03:48:20;;;;;;;3.17;1.80;;;;;;;16.30;69.41;93095.94;2064885;69;20210;-73
2021/08/24 03:50:46;;;;;;;4.00;1.98;;;;;;;16.13;69.66;93090.91;2068380;69;20159;-73
2021/08/24 03:53:12;;;;;;;4.20;1.67;;;;;;;16.14;70.22;93090.25;2068288;69;20152;-73
2021/08/24 03:55:38;;;;;;;3.45;1.70;;;;;;;16.20;69.93;93096.19;2068520;69;20603;-73
2021/08/24 03:58:04;;;;;;;3.67;1.90;;;;;;;16.12;70.34;93095.81;2068218;69;20224;-73
2021/08/24 04:00:29;;;;;;;6.28;1.80;;;;;;;16.17;69.23;93093.91;2068297;69;20133;-73
2021/08/24 04:02:55;;;;;;;6.90;2.28;;;;;;;16.17;69.17;93091.81;2068373;69;20241;-73
2021/08/24 04:05:21;;;;;;;2.17;1.42;;;;;;;16.16;69.64;93100.97;2068623;69;20143;-73
2021/08/24 04:07:46;;;;;;;3.95;1.90;;;;;;;16.27;68.94;93094.38;2068792;69;20136;-73
2021/08/24 04:10:13;;;;;;;4.97;1.80;;;;;;;16.22;69.61;93099.16;2065417;69;20177;-73
2021/08/24 04:12:39;;;;;;;3.83;1.88;;;;;;;16.17;69.88;93106.03;2068755;69;20175;-73
2021/08/24 04:15:09;;;;;;;4.38;1.92;;;;;;;16.15;69.16;93103.06;2068758;69;20172;-73
2021/08/24 04:17:38;;;;;;;6.57;1.95;;;;;;;16.25;69.35;93102.81;2068765;69;20228;-73
2021/08/24 04:20:06;;;;;;;4.78;1.65;;;;;;;16.07;70.85;93113.31;2068620;69;20140;-74
2021/08/24 04:22:32;;;;;;;4.60;1.67;;;;;;;16.17;69.08;93113.78;2068754;69;20149;-73
2021/08/24 04:24:58;;;;;;;4.18;1.70;;;;;;;16.17;69.48;93119.47;2068783;69;20172;-73
2021/08/24 04:27:24;;;;;;;4.40;1.80;;;;;;;16.17;69.46;93125.91;2068860;69;20206;-73
2021/08/24 04:29:49;;;;;;;4.88;1.80;;;;;;;16.10;70.01;93106.38;2068778;69;20157;-73
2021/08/24 04:32:22;;;;;;;4.55;1.73;;;;;;;16.09;69.88;93117.00;2068751;69;20164;-73
2021/08/24 04:34:47;;;;;;;;;;;;;;;16.12;69.95;93124.22;2068720;69;20176;-73
2021/08/24 04:37:13;;;;;;;4.20;2.13;;;;;;;15.98;70.43;93115.03;2065340;69;20045;-73
2021/08/24 04:39:39;;;;;;;4.43;2.20;;;;;;;15.98;70.90;93120.72;2068640;69;20645;-73
2021/08/24 04:42:05;;;;;;;3.78;1.98;;;;;;;16.02;70.13;93115.97;2068700;69;20508;-73
2021/08/24 04:44:31;;;;;;;3.85;2.30;;;;;;;15.94;70.64;93112.75;2068833;69;20161;-73
2021/08/24 04:46:58;;;;;;;3.83;1.98;;;;;;;16.10;69.30;93121.28;2068656;69;20176;-73
2021/08/24 04:49:23;;;;;;;5.55;2.03;;;;;;;16.12;69.00;93112.84;2068592;69;20147;-73
2021/08/24 04:51:49;;;;;;;4.30;2.47;;;;;;;16.12;69.63;93117.81;2068728;69;20155;-74
2021/08/24 04:54:17;;;;;;;4.78;2.40;;;;;;;15.73;72.21;93116.72;2068794;69;20151;-74
2021/08/24 04:56:43;;;;;;;6.78;2.67;;;;;;;15.91;71.21;93127.50;2068587;69;20509;-73
2021/08/24 04:59:09;;;;;;;3.50;2.40;;;;;;;15.93;71.59;93119.06;2068738;69;20148;-73
2021/08/24 05:01:34;;;;;;;5.75;2.38;;;;;;;15.92;71.15;93129.69;2068671;69;20240;-74
2021/08/24 05:04:00;;;;;;;4.43;2.47;;;;;;;15.92;71.32;93124.00;2068742;69;20164;-73
2021/08/24 05:06:25;;;;;;;4.70;2.58;;;;;;;16.03;70.60;93125.22;2068647;69;20136;-73
2021/08/24 05:08:51;;;;;;;5.70;2.60;;;;;;;15.97;71.02;93119.97;2068734;69;20674;-74
2021/08/24 05:11:17;;;;;;;3.72;2.40;;;;;;;16.13;69.98;93122.88;2068484;69;20187;-74
2021/08/24 05:13:42;;;;;;;4.25;2.20;;;;;;;16.16;70.46;93132.19;2068703;69;20149;-74
2021/08/24 05:16:09;;;;;;;6.15;2.10;;;;;;;16.14;71.22;93132.13;2068445;69;20172;-74
2021/08/24 05:18:35;;;;;;;4.43;2.05;;;;;;;16.17;71.28;93130.81;2068493;69;20147;-73
2021/08/24 05:21:08;;;;;;;3.72;1.98;;;;;;;15.93;72.20;93128.31;2068504;69;20512;-74
2021/08/24 05:23:35;;;;;;;3.88;2.38;;;;;;;16.08;71.27;93132.56;2068853;69;20153;-73
2021/08/24 05:26:06;;;;;;;3.80;2.50;;;;;;;16.18;71.17;93133.03;2068594;69;20627;-74
2021/08/24 05:28:32;;;;;;;3.33;2.08;;;;;;;15.54;74.36;93136.31;2068640;69;20205;-74
2021/08/24 05:30:57;;;;;;;4.57;2.58;;;;;;;15.67;74.12;93135.56;2068691;69;20233;-74
2021/08/24 05:33:23;;;;;;;4.47;2.42;;;;;;;16.06;71.90;93137.41;2065150;69;20175;-74
2021/08/24 05:35:48;;;;;;;4.88;2.45;;;;;;;16.09;72.11;93134.03;2068573;69;20141;-74
2021/08/24 05:38:15;;;;;;;6.20;2.58;;;;;;;16.06;72.65;93140.25;2068564;69;20590;-74
2021/08/24 05:40:40;;;;;;;4.88;2.60;;;;;;;16.10;72.31;93134.75;2068528;69;20144;-74
2021/08/24 05:43:06;;;;;;;4.35;2.63;;;;;;;16.09;71.93;93136.88;2068535;69;20225;-74
2021/08/24 05:45:31;;;;;;;5.57;2.58;;;;;;;16.07;72.16;93136.03;2068513;69;20147;-74
2021/08/24 05:47:57;;;;;;;6.47;2.45;;;;;;;16.13;71.43;93139.19;2068659;69;20670;-74
2021/08/24 05:50:26;;;;;;;4.28;2.33;;;;;;;16.17;70.26;93130.81;2068490;69;20160;-74
2021/08/24 05:52:52;;;;;;;5.85;2.25;;;;;;;16.25;69.51;93139.72;2068481;69;20153;-74
2021/08/24 05:55:18;;;;;;;2.55;2.05;;;;;;;16.29;69.57;93144.88;2065177;69;20215;-74
2021/08/24 05:57:44;;;;;;;5.80;2.67;;;;;;;16.40;69.11;93144.72;2064657;69;20180;-74
2021/08/24 06:00:10;;;;;;;6.72;2.40;;;;;;;16.30;70.38;93146.34;2065284;69;20623;-73
2021/08/24 06:02:37;;;;;;;4.95;2.70;;;;;;;16.30;70.81;93140.66;2065185;69;20601;-74
2021/08/24 06:05:05;;;;;;;5.43;2.58;;;;;;;16.30;71.22;93146.34;2065182;69;20157;-74
2021/08/24 06:07:31;;;;;;;5.40;2.50;;;;;;;16.12;72.01;93144.09;2065191;69;20151;-74
2021/08/24 06:09:58;;;;;;;9.23;2.70;;;;;;;15.42;75.97;93133.59;2065075;69;20129;-74
2021/08/24 06:12:25;;;;;;;6.88;2.45;;;;;;;15.38;76.35;93124.88;2065166;69;20208;-74
2021/08/24 06:14:51;;;;;;;4.22;2.58;;;;;;;16.04;71.75;93123.13;2065342;69;20187;-74
2021/08/24 06:17:17;;;;;;;5.50;3.33;;;;;;;16.40;70.41;93127.66;2065120;69;20208;-74
2021/08/24 06:19:43;;;;;;;8.15;2.90;;;;;;;16.52;70.98;93122.53;2064982;69;20607;-74
2021/08/24 06:22:09;;;;;;;6.07;2.85;;;;;;;16.60;70.61;93110.06;2065110;69;20147;-74
2021/08/24 06:24:37;;;;;;;5.25;2.80;;;;;;;16.69;68.88;93117.59;2063165;69;20224;-73
2021/08/24 06:27:05;;;;;;;4.43;2.75;;;;;;;16.79;69.56;93123.75;2062352;69;20156;-73
2021/08/24 06:29:31;;;;;;;3.90;2.50;;;;;;;16.83;69.80;93123.19;2064443;69;20157;-73
2021/08/24 06:31:59;;;;;;;4.95;2.50;;;;;;;17.01;67.33;93126.84;2063896;69;20592;-73
2021/08/24 06:34:27;;;;;;;8.15;2.72;;;;;;;17.13;68.37;93124.50;2063408;69;20156;-74
2021/08/24 06:36:53;;;;;;;5.68;2.55;;;;;;;17.06;67.78;93127.75;2062613;69;20173;-74
2021/08/24 06:39:19;;;;;;;4.97;2.30;;;;;;;16.96;69.04;93128.03;2064321;69;20137;-74
2021/08/24 06:41:46;;;;;;;4.97;2.60;;;;;;;17.02;67.97;93134.00;2061802;69;20502;-74
2021/08/24 06:44:13;;;;;;;5.55;2.60;;;;;;;16.92;68.79;93136.41;2062997;69;20145;-73
2021/08/24 06:46:39;;;;;;;7.00;3.38;;;;;;;17.30;66.73;93130.91;2062923;69;20256;-73
2021/08/24 06:49:05;;;;;;;4.65;2.63;;;;;;;17.48;66.45;93123.88;2063717;69;20633;-73
2021/08/24 06:51:32;;;;;;;4.13;2.72;;;;;;;17.58;66.96;93129.25;2061756;69;20589;-73
2021/08/24 06:53:57;;;;;;;3.42;2.40;;;;;;;17.63;68.18;93130.16;2062831;69;20145;-73
2021/08/24 06:56:23;;;;;;;4.38;2.50;;;;;;;17.67;65.65;93124.63;2065038;69;20147;-72
2021/08/24 06:58:49;;;;;;;5.00;2.65;;;;;;;17.69;66.66;93125.47;2068296;69;20148;-73
2021/08/24 07:01:20;;;;;;;7.43;2.25;;;;;;;17.80;65.76;93117.34;2068261;69;20145;-72
2021/08/24 07:03:46;;;;;;;3.78;2.40;;;;;;;17.76;64.35;93115.81;2070306;69;20144;-73
2021/08/24 07:06:12;;;;;;;5.63;2.53;;;;;;;17.73;63.42;93116.34;2069086;69;20181;-72
2021/08/24 07:08:38;;;;;;;5.80;2.60;;;;;;;17.80;65.59;93120.22;2067859;69;20184;-72
2021/08/24 07:11:04;;;;;;;3.30;2.45;;;;;;;17.71;64.87;93119.84;2068354;69;20147;-73
2021/08/24 07:13:30;;;;;;;5.60;2.58;;;;;;;17.92;64.43;93115.75;2068269;69;20528;-74
2021/08/24 07:15:57;;;;;;;4.05;2.83;;;;;;;18.11;62.54;93108.66;2068067;69;20162;-74
2021/08/24 07:18:24;;;;;;;3.67;2.70;;;;;;;17.48;67.11;93111.75;2067895;69;20157;-74
2021/08/24 07:20:51;;;;;;;4.45;3.10;;;;;;;17.85;66.85;93108.31;2068001;69;20244;-74
2021/08/24 07:23:17;;;;;;;3.55;2.60;;;;;;;18.23;64.00;93109.09;2067475;69;20148;-74
2021/08/24 07:25:43;;;;;;;4.90;2.47;;;;;;;18.37;63.48;93108.19;2066460;69;20213;-74
2021/08/24 07:28:10;;;;;;;8.15;3.53;;;;;;;18.54;63.34;93113.88;2071672;69;20156;-74
2021/08/24 07:30:42;;;;;;;5.13;2.97;;;;;;;17.88;65.80;93114.84;2071738;69;20235;-75
2021/08/24 07:33:08;;;;;;;4.53;2.78;;;;;;;17.32;66.30;93120.38;2070889;69;20149;-75
2021/08/24 07:35:34;;;;;;;5.15;3.38;;;;;;;17.84;65.81;93114.69;2068095;69;20202;-75
2021/08/24 07:38:01;;;;;;;5.43;2.63;;;;;;;17.86;65.48;93111.91;2068200;69;20156;-75
2021/08/24 07:40:28;;;;;;;3.72;3.22;;;;;;;17.78;66.19;93110.19;2068454;69;20523;-74
2021/08/24 07:42:54;;;;;;;7.18;3.03;;;;;;;17.86;65.16;93120.44;2068337;69;20251;-75
2021/08/24 07:45:19;;;;;;;4.80;3.00;;;;;;;17.52;67.83;93115.50;2068194;69;20679;-74
2021/08/24 07:47:45;;;;;;;4.32;2.78;;;;;;;18.00;65.49;93116.03;2068265;69;20176;-75
2021/08/24 07:50:11;;;;;;;3.42;2.67;;;;;;;17.61;67.78;93110.16;2068170;69;20151;-75
2021/08/24 07:52:37;;;;;;;6.85;2.50;;;;;;;18.37;64.59;93116.75;2068303;69;20140;-74
2021/08/24 07:55:04;;;;;;;4.68;2.60;;;;;;;18.78;63.54;93113.34;2068337;69;20535;-76
2021/08/24 07:57:29;;;;;;;5.53;2.70;;;;;;;18.85;64.08;93115.03;2064859;69;20156;-76
2021/08/24 07:59:55;;;;;;;4.80;2.70;;;;;;;18.58;63.60;93121.84;2068228;69;20145;-76
2021/08/24 08:02:24;;;;;;;3.15;2.40;;;;;;;19.10;61.38;93118.75;2067877;69;20152;-76
2021/08/24 08:04:50;;;;;;;6.53;2.67;;;;;;;19.04;62.01;93111.44;2067958;69;20149;-75
2021/08/24 08:07:16;;;;;;;4.35;2.60;;;;;;;19.09;60.58;93117.31;2068655;69;20151;-75
2021/08/24 08:09:42;;;;;;;5.00;2.88;;;;;;;18.43;64.77;93120.56;2068445;69;20149;-76
2021/08/24 08:12:09;;;;;;;5.15;2.70;;;;;;;18.50;65.00;93116.56;2070195;69;20144;-74
2021/08/24 08:14:35;;;;;;;7.53;2.50;;;;;;;18.81;63.80;93120.59;2068281;69;20141;-78
2021/08/24 08:17:01;;;;;;;6.40;3.42;;;;;;;18.82;62.68;93124.16;2068183;69;20152;-74
2021/08/24 08:19:26;;;;;;;4.47;2.50;;;;;;;19.22;61.91;93125.63;2068115;69;20247;-74
2021/08/24 08:21:52;;;;;;;5.68;2.45;;;;;;;19.21;61.30;93114.88;2068098;69;20133;-74
2021/08/24 08:24:17;;;;;;;4.57;2.90;;;;;;;18.66;64.84;93124.28;2068014;69;20626;-74
2021/08/24 08:26:43;;;;;;;6.82;2.50;;;;;;;19.12;63.83;93124.56;2068211;69;20156;-76
2021/08/24 08:29:11;;;;;;;4.18;2.45;;;;;;;19.26;62.15;93119.34;2068449;69;20164;-76
2021/08/24 08:31:43;;;;;;;4.88;2.72;;;;;;;19.12;63.15;93125.28;2068071;69;20586;-75
2021/08/24 08:34:10;;;;;;;3.55;2.55;;;;;;;18.67;64.75;93131.44;2064695;69;20168;-74
2021/08/24 08:36:36;;;;;;;4.30;2.80;;;;;;;18.74;64.87;93116.78;2064850;69;20160;-76
2021/08/24 08:39:02;;;;;;;4.28;2.15;;;;;;;19.33;63.17;93118.16;2068153;69;20140;-77
2021/08/24 08:41:39;;;;;;;3.22;2.40;;;;;;;18.94;64.11;93122.50;2068171;69;20167;-76
2021/08/24 08:44:26;;;;;;;6.35;2.50;;;;;;;18.44;66.45;93127.75;2068165;69;20600;-76
2021/08/24 08:46:52;;;;;;;7.03;2.60;;;;;;;19.27;65.37;93129.38;2068152;69;20199;-76
2021/08/24 08:49:31;;;;;;;2.67;2.05;;;;;;;19.96;62.93;93128.16;2068021;69;20173;-76
2021/08/24 08:52:19;;;;;;;3.28;2.15;;;;;;;19.66;62.38;93119.31;2068162;69;20504;-76
2021/08/24 08:54:56;;;;;;;2.67;2.00;;;;;;;20.06;60.76;93120.63;2068223;69;20159;-77
2021/08/24 08:57:32;;;;;;;3.08;2.00;;;;;;;20.34;59.33;93120.06;2068207;69;20215;-80
2021/08/24 09:00:02;;;;;;;2.33;1.85;;;;;;;20.40;58.54;93111.69;2068525;69;20210;-75
2021/08/24 09:02:40;;;;;;;2.60;2.13;;;;;;;20.28;58.81;93117.03;2068435;69;20271;-75
2021/08/24 09:05:08;;;;;;;4.20;1.88;;;;;;;20.16;58.29;93113.78;2068543;69;20588;-74
2021/08/24 09:07:42;;;;;;;5.15;2.05;;;;;;;19.64;59.48;93110.66;2068613;69;20133;-74
2021/08/24 09:10:43;;;;;;;3.30;2.03;;;;;;;19.99;58.19;93107.56;2068606;69;20164;-74
2021/08/24 09:13:23;;;;;;;2.47;1.90;;;;;;;19.40;60.48;93107.69;2068635;69;20152;-75
2021/08/24 09:16:03;;;;;;;8.88;2.40;;;;;;;18.67;63.23;93108.63;2068684;69;20254;-74
2021/08/24 09:18:56;;;;;;;4.50;2.10;;;;;;;19.37;61.40;93106.88;2068534;69;20137;-74
2021/08/24 09:21:29;;;;;;;3.35;1.95;;;;;;;19.75;61.26;93112.47;2068747;69;20137;-75
2021/08/24 09:23:57;;;;;;;4.28;2.28;;;;;;;19.23;61.84;93098.56;2068564;69;20172;-75
2021/08/24 09:26:49;;;;;;;1.65;1.55;;;;;;;19.35;62.05;93103.25;2068628;69;20183;-75
2021/08/24 09:29:21;;;;;;;2.22;1.30;;;;;;;20.07;58.41;93104.25;2068748;69;20148;-75
2021/08/24 09:31:47;;;;;;;2.47;1.30;;;;;;;19.98;57.30;93100.38;2068546;69;20180;-75
2021/08/24 09:34:16;;;;;;;1.55;1.13;;;;;;;20.07;57.03;93092.81;2065166;69;20139;-75
2021/08/24 09:36:42;;;;;;;1.65;1.10;;;;;;;19.03;57.20;93098.56;2065312;69;20247;-76
2021/08/24 09:39:08;;;;;;;1.35;1.00;;;;;;;19.45;56.62;93092.16;2068647;69;20307;-75
2021/08/24 09:41:37;;;;;;;1.58;1.00;;;;;;;19.90;56.78;93087.97;2068583;69;20140;-74
2021/08/24 09:44:27;;;;;;;0.98;0.95;;;;;;;19.77;55.56;93099.00;2068610;69;20195;-76
2021/08/24 09:47:06;;;;;;;0.80;0.80;;;;;;;20.14;54.72;93096.56;2068567;69;20144;-76
2021/08/24 09:49:37;;;;;;;2.05;0.75;;;;;;;19.99;53.79;93086.84;2068432;69;20176;-76
2021/08/24 09:52:27;;;;;;;1.10;0.98;;;;;;;20.61;54.07;93086.59;2068576;69;20140;-75
2021/08/24 09:54:58;;;;;;;0.90;0.70;;;;;;;19.94;54.13;93082.38;2065349;69;20151;-75
2021/08/24 09:57:26;;;;;;;0.85;0.80;;;;;;;20.34;53.17;93091.47;2067455;69;20164;-75
2021/08/24 10:00:17;;;;;;;2.35;1.17;;;;;;;20.88;53.87;93097.41;2067553;69;20974;-75
2021/08/24 10:02:45;;;;;;;2.65;0.68;;;;;;;20.24;52.89;93094.03;2068067;69;20589;-76
2021/08/24 10:05:34;;;;;;;1.00;0.73;;;;;;;20.22;53.02;93100.44;2068279;69;20257;-75
2021/08/24 10:08:19;;;;;;;1.45;0.68;;;;;;;20.53;53.56;93092.81;2068386;69;20150;-75
2021/08/24 10:11:00;;;;;;;0.95;0.70;;;;;;;20.74;52.43;93085.56;2068361;69;20231;-75
2021/08/24 10:13:37;;;;;;;1.48;0.73;;;;;;;21.11;51.73;93092.31;2068304;69;20160;-75
2021/08/24 10:16:08;;;;;;;0.90;0.60;;;;;;;21.49;51.31;93084.81;2068333;69;20149;-76
2021/08/24 10:18:35;;;;;;;0.70;0.65;;;;;;;21.82;51.12;93088.50;2068279;69;20157;-78
2021/08/24 10:21:51;;;;;;;0.70;0.70;;;;;;;22.07;49.63;93090.56;2068413;69;20152;-80
2021/08/24 10:24:26;;;;;;;1.00;0.65;;;;;;;21.45;49.36;93083.97;2068398;69;20149;-78
2021/08/24 10:26:55;;;;;;;2.55;1.00;;;;;;;22.12;49.92;93085.66;2065111;69;20160;-78
2021/08/24 10:29:26;;;;;;;0.93;0.70;;;;;;;22.17;49.06;93078.63;2065037;69;20199;-78
2021/08/24 10:31:57;;;;;;;1.00;0.82;;;;;;;22.17;48.89;93078.63;2068360;69;20157;-78
2021/08/24 10:34:48;;;;;;;0.63;0.63;;;;;;;22.53;48.97;93080.88;2068293;69;20183;-77
2021/08/24 10:37:26;;;;;;;0.70;0.70;;;;;;;21.83;49.31;93078.50;2066430;69;20236;-76
2021/08/24 10:39:54;;;;;;;1.15;0.60;;;;;;;22.32;48.81;93068.22;2068444;69;20141;-80
2021/08/24 10:42:23;;;;;;;0.50;0.50;;;;;;;22.15;48.66;93072.84;2068430;69;20143;-76
2021/08/24 10:44:55;;;;;;;0.70;0.70;;;;;;;22.29;48.81;93064.56;2068430;69;20251;-77
2021/08/24 10:47:21;;;;;;;;;;;;;;;22.72;47.23;93062.63;2065303;69;20140;-76
2021/08/24 10:49:46;;;;;;;0.75;0.68;;;;;;;22.90;47.45;93070.22;2068327;69;20584;-78
2021/08/24 10:52:25;;;;;;;2.35;0.80;;;;;;;22.91;47.34;93074.53;2068299;69;20148;-75
2021/08/24 10:55:07;;;;;;;0.80;0.80;;;;;;;23.53;46.79;93062.81;2068609;69;20163;-77
2021/08/24 10:57:38;;;;;;;;;;;;;;;23.50;47.83;93061.31;2068867;69;20179;-75
2021/08/24 11:00:10;;;;;;;1.15;0.70;;;;;;;23.48;48.92;93053.41;2068669;69;20089;-79
2021/08/24 11:03:05;;;;;;;0.87;0.87;;;;;;;24.31;47.55;93050.50;2069878;69;20144;-75
2021/08/24 11:05:48;;;;;;;1.77;0.75;;;;;;;27.57;41.62;93058.56;2064847;69;20137;-80
2021/08/24 11:08:38;;;;;;;0.73;0.70;;;;;;;31.84;35.20;93069.56;2066371;69;20163;-85
2021/08/24 11:11:22;;;;;;;1.83;0.75;;;;;;;33.26;32.41;93065.09;2066749;69;20520;-78
2021/08/24 11:14:32;;;;;;;1.70;0.40;;;;;;;33.71;31.25;93070.78;2068060;69;20152;-79
2021/08/24 11:17:10;;;;;;;1.15;0.40;;;;;;;32.98;30.63;93066.34;2067817;69;20233;-80
2021/08/24 11:19:39;;;;;;;0.80;0.32;;;;;;;31.24;30.61;93062.25;2067252;69;20592;-77
2021/08/24 11:22:18;;;;;;;0.77;0.30;;;;;;;29.04;34.48;93047.03;2068080;69;20155;-76
2021/08/24 11:24:57;;;;;;;0.95;0.30;;;;;;;33.66;27.00;93051.94;2068247;69;20202;-79
2021/08/24 11:27:32;;;;;;;2.03;0.40;;;;;;;36.79;23.82;93062.72;2068275;69;20607;-78
2021/08/24 11:30:03;;;;;;;0.30;0.30;;;;;;;35.09;26.45;93058.13;2068304;69;20258;-83
2021/08/24 11:32:38;;;;;;;1.80;0.20;;;;;;;36.82;22.40;93066.28;2068288;69;20302;-78
2021/08/24 11:35:11;;;;;;;0.70;0.30;;;;;;;36.46;23.46;93063.03;2068110;69;20548;-83
2021/08/24 11:37:56;;;;;;;1.40;0.30;;;;;;;35.71;23.23;93054.25;2068109;69;20175;-78
2021/08/24 11:40:36;;;;;;;0.52;0.20;;;;;;;36.03;23.35;93052.59;2068259;69;20160;-79
2021/08/24 11:43:06;;;;;;;0.23;0.23;;;;;;;37.71;22.86;93055.91;2068237;69;20497;-79
2021/08/24 11:45:51;;;;;;;0.22;0.22;;;;;;;37.74;21.93;93057.25;2068165;69;20141;-78
2021/08/24 11:48:30;;;;;;;0.40;0.20;;;;;;;35.41;24.39;93052.88;2068097;69;20164;-78
2021/08/24 11:51:14;;;;;;;0.20;0.20;;;;;;;36.48;24.34;93054.19;2068046;69;20168;-80
2021/08/24 11:53:48;;;;;;;0.20;0.20;;;;;;;31.40;28.72;93052.66;2064011;69;20756;-79